Time;durP1;ratioP1;P1;durP2;ratioP2;P2;SDS_P1;SDS_P2;PMS_P1;PMS_P2;Temp;Humidity;BMP_temperature;BMP_pressure;BME280_temperature;BME280_humidity;BME280_pressure;Samples;Min_cycle;Max_cycle;Signal;HPM_P1;HPM_P2
2022/09/20 00:01:20;;;;;;;6.50;3.33;;;;;;;9.60;100.00;100603.56;5006693;28;20308;-67
2022/09/20 00:03:48;;;;;;;10.47;3.27;;;;;;;9.54;100.00;100604.69;5015951;28;20200;-67
2022/09/20 00:06:18;;;;;;;10.10;3.03;;;;;;;9.59;100.00;100613.00;5026257;28;20186;-67
2022/09/20 00:08:44;;;;;;;8.50;3.40;;;;;;;9.63;100.00;100613.72;5021170;28;20194;-67
2022/09/20 00:11:23;;;;;;;10.20;3.17;;;;;;;9.55;100.00;100610.63;5009479;28;20234;-67
2022/09/20 00:13:51;;;;;;;4.90;2.50;;;;;;;9.71;100.00;100605.69;5015801;28;20198;-67
2022/09/20 00:16:26;;;;;;;10.60;3.40;;;;;;;9.65;100.00;100599.91;5013735;28;20593;-67
2022/09/20 00:18:58;;;;;;;7.73;2.20;;;;;;;9.71;100.00;100603.94;5022624;28;20669;-67
2022/09/20 00:21:26;;;;;;;5.97;2.43;;;;;;;9.70;100.00;100602.28;5024857;28;20237;-68
2022/09/20 00:23:52;;;;;;;9.40;2.73;;;;;;;9.73;100.00;100602.16;5022670;28;20640;-67
2022/09/20 00:26:21;;;;;;;7.60;3.00;;;;;;;9.67;100.00;100603.25;5026988;28;20214;-67
2022/09/20 00:28:46;;;;;;;10.57;3.07;;;;;;;9.56;100.00;100605.44;5021418;28;20194;-67
2022/09/20 00:31:13;;;;;;;11.57;3.27;;;;;;;9.47;100.00;100604.06;5014479;28;20237;-66
2022/09/20 00:36:28;;;;;;;8.50;3.60;;;;;;;9.37;100.00;100595.91;5014229;28;20197;-67
2022/09/20 00:39:01;;;;;;;10.77;3.53;;;;;;;9.23;100.00;100595.69;5017748;28;20230;-67
2022/09/20 00:41:27;;;;;;;8.53;4.47;;;;;;;9.30;100.00;100603.94;5014265;28;20560;-66
2022/09/20 00:43:56;;;;;;;7.80;3.57;;;;;;;9.20;100.00;100598.34;5028990;28;20225;-67
2022/09/20 00:46:31;;;;;;;8.30;3.63;;;;;;;9.23;100.00;100595.69;5012881;28;20676;-66
2022/09/20 00:49:13;;;;;;;9.83;4.23;;;;;;;9.24;100.00;100604.19;5012716;28;20174;-66
2022/09/20 00:51:44;;;;;;;12.30;4.13;;;;;;;9.25;100.00;100601.56;4992199;28;20230;-68
2022/09/20 00:54:13;;;;;;;11.27;4.30;;;;;;;9.35;100.00;100600.31;5021392;28;20259;-65
2022/09/20 00:56:42;;;;;;;10.77;3.77;;;;;;;9.33;100.00;100606.41;5032622;28;20197;-67
2022/09/20 00:59:29;;;;;;;10.47;3.57;;;;;;;9.27;100.00;100602.34;5023812;28;20187;-66
2022/09/20 01:02:26;;;;;;;6.90;3.40;;;;;;;9.26;100.00;100604.97;5005617;28;20574;-66
2022/09/20 01:04:56;;;;;;;9.43;3.57;;;;;;;9.39;100.00;100606.16;5039028;28;20186;-66
2022/09/20 01:07:23;;;;;;;6.13;3.50;;;;;;;9.36;100.00;100613.97;5019566;28;20245;-66
2022/09/20 01:09:49;;;;;;;5.00;3.77;;;;;;;9.38;100.00;100614.75;5023002;28;20178;-69
2022/09/20 01:12:21;;;;;;;8.80;3.40;;;;;;;9.27;100.00;100619.50;5020376;28;20236;-66
2022/09/20 01:14:49;;;;;;;15.40;3.57;;;;;;;9.32;100.00;100615.81;5014906;28;20186;-66
2022/09/20 01:17:18;;;;;;;10.10;3.40;;;;;;;9.25;100.00;100619.53;5021953;28;20177;-66
2022/09/20 01:19:53;;;;;;;10.63;3.50;;;;;;;9.29;100.00;100621.09;5021600;28;20206;-65
2022/09/20 01:22:28;;;;;;;8.23;3.43;;;;;;;9.26;100.00;100623.78;5031713;28;20249;-66
2022/09/20 01:25:05;;;;;;;9.37;3.30;;;;;;;9.26;100.00;100615.25;5024949;28;20201;-67
2022/09/20 01:27:48;;;;;;;7.13;2.57;;;;;;;9.30;100.00;100619.34;5028531;28;20189;-66
2022/09/20 01:30:20;;;;;;;13.33;2.97;;;;;;;9.28;100.00;100614.28;5014100;28;20208;-66
2022/09/20 01:33:16;;;;;;;8.93;2.93;;;;;;;9.35;100.00;100617.44;5016639;28;20213;-65
2022/09/20 01:35:45;;;;;;;13.93;3.60;;;;;;;9.40;100.00;100618.06;5020434;28;20198;-66
2022/09/20 01:38:26;;;;;;;12.33;3.07;;;;;;;9.31;100.00;100614.16;5022324;28;20193;-66
2022/09/20 01:41:09;;;;;;;9.37;3.20;;;;;;;9.37;100.00;100623.34;5012488;28;20264;-66
2022/09/20 01:43:40;;;;;;;14.77;3.37;;;;;;;9.32;100.00;100622.69;5022595;28;20238;-66
2022/09/20 01:46:31;;;;;;;10.03;2.60;;;;;;;9.19;100.00;100622.34;5010422;28;20264;-65
2022/09/20 01:49:24;;;;;;;10.40;3.03;;;;;;;9.20;100.00;100624.03;5003570;28;20198;-65
2022/09/20 01:52:09;;;;;;;10.80;3.23;;;;;;;9.11;100.00;100620.09;5004653;28;20248;-66
2022/09/20 01:54:47;;;;;;;7.07;2.60;;;;;;;9.13;100.00;100620.88;5017347;28;20184;-66
2022/09/20 01:58:06;;;;;;;11.17;3.70;;;;;;;8.98;100.00;100622.31;5009164;28;20826;-66
2022/09/20 02:00:56;;;;;;;8.10;2.73;;;;;;;9.04;100.00;100621.22;4932530;28;20243;-65
2022/09/20 02:03:49;;;;;;;10.63;3.20;;;;;;;8.97;100.00;100625.78;4947333;29;20201;-66
2022/09/20 02:06:23;;;;;;;11.27;3.27;;;;;;;9.06;100.00;100624.59;4934598;29;20187;-66
2022/09/20 02:09:14;;;;;;;8.13;3.03;;;;;;;8.99;100.00;100618.03;4942871;29;20197;-67
2022/09/20 02:12:00;;;;;;;12.47;3.30;;;;;;;9.03;100.00;100617.03;4927613;28;20228;-66
2022/09/20 02:14:40;;;;;;;6.87;2.93;;;;;;;8.95;100.00;100616.47;4943166;29;20254;-66
2022/09/20 02:17:33;;;;;;;12.17;3.40;;;;;;;8.67;100.00;100615.81;4933293;29;20188;-65
2022/09/20 02:20:14;;;;;;;7.77;3.80;;;;;;;8.62;100.00;100622.00;4934535;29;20214;-66
2022/09/20 02:22:43;;;;;;;11.50;3.30;;;;;;;8.68;100.00;100616.66;4908247;29;21439;-65
2022/09/20 02:25:51;;;;;;;8.23;3.37;;;;;;;8.67;100.00;100612.41;4934402;29;20275;-66
2022/09/20 02:28:50;;;;;;;8.30;4.10;;;;;;;8.60;100.00;100609.25;4934065;29;20196;-66
2022/09/20 02:31:37;;;;;;;10.67;4.00;;;;;;;8.57;100.00;100614.50;4921925;28;20236;-65
2022/09/20 02:34:44;;;;;;;11.37;4.37;;;;;;;8.46;100.00;100609.78;4978646;28;20192;-65
2022/09/20 02:37:46;;;;;;;11.23;5.17;;;;;;;8.47;100.00;100610.59;5015299;28;20233;-66
2022/09/20 02:40:50;;;;;;;13.87;5.87;;;;;;;8.53;100.00;100615.50;5007540;28;20216;-66
2022/09/20 02:43:34;;;;;;;11.20;6.40;;;;;;;8.54;100.00;100617.19;5000244;28;20230;-66
2022/09/20 02:46:07;;;;;;;11.53;6.07;;;;;;;8.50;100.00;100616.44;5017181;28;20197;-66
2022/09/20 02:49:02;;;;;;;19.70;7.30;;;;;;;8.37;100.00;100620.34;5010538;28;20186;-67
2022/09/20 02:51:45;;;;;;;11.27;6.93;;;;;;;8.33;100.00;100622.16;4974469;28;20699;-67
2022/09/20 02:54:33;;;;;;;14.13;6.93;;;;;;;8.25;100.00;100626.75;5025363;28;20185;-67
2022/09/20 02:57:14;;;;;;;11.40;6.87;;;;;;;8.29;100.00;100630.06;5027575;28;20185;-66
2022/09/20 02:59:42;;;;;;;11.90;7.40;;;;;;;8.29;100.00;100623.19;5019817;28;20255;-67
2022/09/20 03:02:36;;;;;;;17.33;7.07;;;;;;;8.24;100.00;100625.09;4989027;28;20245;-67
2022/09/20 03:05:20;;;;;;;13.23;6.70;;;;;;;8.11;100.00;100631.53;4999784;28;20217;-67
2022/09/20 03:07:48;;;;;;;12.67;5.90;;;;;;;8.19;100.00;100625.25;5011576;28;20205;-67
2022/09/20 03:10:32;;;;;;;17.30;6.63;;;;;;;8.10;100.00;100624.72;5014076;28;20189;-67
2022/09/20 03:13:19;;;;;;;9.63;5.73;;;;;;;8.03;100.00;100621.56;5030268;28;20201;-67
2022/09/20 03:16:09;;;;;;;9.93;6.67;;;;;;;7.99;100.00;100620.84;5002695;28;20286;-67
2022/09/20 03:19:01;;;;;;;14.20;5.90;;;;;;;7.89;100.00;100633.13;5003160;28;20193;-67
2022/09/20 03:21:48;;;;;;;15.37;7.40;;;;;;;7.94;100.00;100625.28;5012671;28;20221;-67
2022/09/20 03:24:33;;;;;;;17.43;7.13;;;;;;;7.94;100.00;100634.69;5018446;28;20637;-67
2022/09/20 03:27:10;;;;;;;14.93;7.47;;;;;;;7.86;100.00;100634.97;5010659;28;20244;-66
2022/09/20 03:29:48;;;;;;;17.40;7.83;;;;;;;7.81;100.00;100640.22;5006598;28;20216;-67
2022/09/20 03:32:22;;;;;;;15.07;7.07;;;;;;;7.84;100.00;100639.28;4968045;28;20225;-66
2022/09/20 03:34:58;;;;;;;15.20;6.90;;;;;;;7.85;100.00;100640.97;5024827;28;20197;-67
2022/09/20 03:37:55;;;;;;;10.10;6.63;;;;;;;7.81;100.00;100644.53;5029854;28;20188;-68
2022/09/20 03:40:35;;;;;;;10.93;6.60;;;;;;;7.89;100.00;100640.81;5004735;28;20337;-67
2022/09/20 03:43:25;;;;;;;14.90;6.73;;;;;;;7.84;100.00;100646.97;5022811;28;20235;-67
2022/09/20 03:45:57;;;;;;;10.23;6.23;;;;;;;7.89;100.00;100640.00;5019904;28;20193;-66
2022/09/20 03:48:56;;;;;;;10.97;6.13;;;;;;;7.81;100.00;100642.78;5025997;28;20665;-67
2022/09/20 03:51:28;;;;;;;7.60;5.33;;;;;;;7.85;100.00;100641.81;5007605;28;20284;-67
2022/09/20 03:54:14;;;;;;;9.53;5.33;;;;;;;7.75;100.00;100645.56;5017474;28;20182;-67
2022/09/20 03:57:05;;;;;;;13.50;5.50;;;;;;;7.85;100.00;100652.06;5015973;28;20200;-68
2022/09/20 04:00:00;;;;;;;12.87;5.23;;;;;;;7.79;100.00;100644.59;5024083;28;20213;-68
2022/09/20 04:03:03;;;;;;;9.27;5.40;;;;;;;7.88;100.00;100653.69;5000652;28;20309;-67
2022/09/20 04:05:28;;;;;;;11.67;5.97;;;;;;;8.04;100.00;100654.00;5012167;28;20198;-67
2022/09/20 04:08:25;;;;;;;9.07;5.47;;;;;;;7.85;100.00;100651.22;5016353;28;20216;-69
2022/09/20 04:11:07;;;;;;;9.60;5.03;;;;;;;7.94;100.00;100653.47;5010199;28;20236;-68
2022/09/20 04:13:46;;;;;;;12.23;5.50;;;;;;;7.98;100.00;100651.66;5020529;28;20177;-69
2022/09/20 04:16:45;;;;;;;8.13;5.23;;;;;;;7.96;100.00;100655.97;5014826;28;20550;-68
2022/09/20 04:19:22;;;;;;;12.17;5.03;;;;;;;7.92;100.00;100652.69;5011103;28;20673;-68
2022/09/20 04:21:54;;;;;;;13.10;4.93;;;;;;;7.78;100.00;100649.75;4996530;28;20298;-67
2022/09/20 04:24:29;;;;;;;9.10;5.20;;;;;;;7.67;100.00;100653.50;5005340;28;20244;-68
2022/09/20 04:27:02;;;;;;;12.60;5.23;;;;;;;7.77;100.00;100654.03;5012459;28;20193;-68
2022/09/20 04:29:41;;;;;;;12.50;5.73;;;;;;;7.90;100.00;100654.44;5013455;28;20202;-67
2022/09/20 04:32:29;;;;;;;10.63;5.20;;;;;;;7.78;100.00;100648.03;5004092;28;20226;-68
2022/09/20 04:38:16;;;;;;;10.17;4.97;;;;;;;7.81;100.00;100647.09;5014777;28;20321;-67
2022/09/20 04:41:19;;;;;;;16.77;6.13;;;;;;;7.81;100.00;100650.47;5003806;28;20259;-67
2022/09/20 04:44:13;;;;;;;10.37;5.27;;;;;;;7.96;100.00;100651.69;5011853;28;20252;-68
2022/09/20 04:47:08;;;;;;;14.53;6.23;;;;;;;8.08;100.00;100658.94;4989122;28;20664;-68
2022/09/20 04:50:27;;;;;;;15.10;5.30;;;;;;;8.12;100.00;100658.84;5022247;28;20761;-68
2022/09/20 04:53:29;;;;;;;11.10;5.63;;;;;;;8.24;100.00;100660.97;4942958;28;20224;-67
2022/09/20 04:56:03;;;;;;;12.87;5.37;;;;;;;8.52;100.00;100663.41;4954743;28;20679;-67
2022/09/20 04:58:35;;;;;;;12.43;5.03;;;;;;;8.67;100.00;100667.13;4960971;28;20188;-67
2022/09/20 05:01:15;;;;;;;10.07;4.83;;;;;;;8.64;100.00;100666.41;4952133;28;20326;-67
2022/09/20 05:04:05;;;;;;;11.63;5.73;;;;;;;8.73;100.00;100673.72;4959892;28;20195;-71
2022/09/20 05:07:07;;;;;;;13.10;5.87;;;;;;;8.76;100.00;100672.78;4954543;28;20679;-67
2022/09/20 05:09:45;;;;;;;14.47;5.30;;;;;;;8.97;100.00;100666.03;4968654;28;20187;-67
2022/09/20 05:12:24;;;;;;;11.47;4.70;;;;;;;8.74;100.00;100666.88;4946595;28;20382;-67
2022/09/20 05:15:12;;;;;;;11.73;4.43;;;;;;;8.88;100.00;100667.19;4966123;28;20184;-67
2022/09/20 05:18:04;;;;;;;10.57;4.70;;;;;;;9.08;100.00;100675.84;4954454;28;20332;-66
2022/09/20 05:21:07;;;;;;;9.17;4.33;;;;;;;9.13;100.00;100674.78;4928543;28;20279;-66
2022/09/20 05:23:41;;;;;;;7.83;4.27;;;;;;;9.29;100.00;100676.72;4979691;28;20201;-66
2022/09/20 05:26:43;;;;;;;9.50;4.33;;;;;;;9.26;100.00;100672.56;5010847;28;20711;-67
2022/09/20 05:29:35;;;;;;;8.57;4.03;;;;;;;9.44;100.00;100683.81;5002039;28;20251;-66
2022/09/20 05:32:07;;;;;;;10.90;4.00;;;;;;;9.44;100.00;100678.69;5034023;28;20254;-67
2022/09/20 05:34:38;;;;;;;6.10;3.97;;;;;;;9.59;100.00;100682.38;5024717;28;20190;-67
2022/09/20 05:37:21;;;;;;;8.50;4.33;;;;;;;9.65;100.00;100689.81;5019082;28;20214;-67
2022/09/20 05:40:16;;;;;;;8.03;3.53;;;;;;;9.71;100.00;100690.47;5012048;28;20199;-68
2022/09/20 05:42:53;;;;;;;8.57;3.33;;;;;;;9.72;100.00;100692.13;5018417;28;20322;-67
2022/09/20 05:45:28;;;;;;;9.63;3.33;;;;;;;9.89;100.00;100699.97;5026313;28;20275;-67
2022/09/20 05:48:30;;;;;;;11.53;3.93;;;;;;;9.95;100.00;100704.03;5016792;28;20185;-66
2022/09/20 05:51:12;;;;;;;12.47;3.73;;;;;;;10.06;100.00;100699.25;5009511;28;20229;-66
2022/09/20 05:53:37;;;;;;;9.17;3.50;;;;;;;10.20;100.00;100702.97;5022472;28;20186;-66
2022/09/20 05:56:21;;;;;;;10.30;3.87;;;;;;;10.14;100.00;100701.50;5015137;28;20197;-67
2022/09/20 05:59:05;;;;;;;7.57;3.70;;;;;;;10.26;100.00;100706.09;5020365;28;20537;-67
2022/09/20 06:02:19;;;;;;;9.93;3.80;;;;;;;10.34;100.00;100705.75;5006597;28;20293;-67
2022/09/20 06:05:15;;;;;;;11.17;4.03;;;;;;;10.39;100.00;100698.72;4991316;28;20348;-68
2022/09/20 06:08:16;;;;;;;6.27;3.30;;;;;;;10.51;100.00;100707.63;4982212;28;20187;-66
2022/09/20 06:10:41;;;;;;;12.60;3.73;;;;;;;10.54;100.00;100704.91;4960086;28;20237;-66
2022/09/20 06:13:32;;;;;;;13.23;4.10;;;;;;;10.52;100.00;100706.72;4984759;28;20278;-66
2022/09/20 06:16:01;;;;;;;8.17;3.50;;;;;;;10.70;100.00;100707.63;4972472;28;20210;-68
2022/09/20 06:18:56;;;;;;;11.13;3.23;;;;;;;10.83;100.00;100705.34;4977424;28;20190;-67
2022/09/20 06:21:49;;;;;;;12.00;3.77;;;;;;;10.79;100.00;100702.06;4985605;28;20280;-68
2022/09/20 06:24:50;;;;;;;6.73;2.90;;;;;;;10.84;100.00;100707.03;4987995;28;20320;-67
2022/09/20 06:27:31;;;;;;;9.20;3.40;;;;;;;10.97;100.00;100705.53;4989598;28;20200;-68
2022/09/20 06:30:04;;;;;;;6.90;3.50;;;;;;;11.36;100.00;100697.72;4984752;28;20209;-69
2022/09/20 06:32:30;;;;;;;7.87;2.90;;;;;;;11.81;100.00;100701.53;4975523;28;20378;-67
2022/09/20 06:34:59;;;;;;;5.57;3.07;;;;;;;12.38;100.00;100701.25;4994475;28;20202;-67
2022/09/20 06:43:35;;;;;;;6.53;2.40;;;;;;;14.90;93.19;100693.75;5020128;28;20291;-66
2022/09/20 06:46:01;;;;;;;7.20;2.63;;;;;;;15.82;85.42;100696.50;5015100;28;20193;-67
2022/09/20 06:48:29;;;;;;;6.87;2.40;;;;;;;16.97;77.57;100689.44;5012166;28;20182;-66
2022/09/20 06:50:54;;;;;;;7.83;3.10;;;;;;;17.49;65.94;100692.59;5004428;28;20317;-69
2022/09/20 06:53:27;;;;;;;6.53;3.10;;;;;;;17.65;66.30;100707.91;5009354;28;20269;-69
2022/09/20 06:55:53;;;;;;;8.77;2.80;;;;;;;18.92;58.73;100695.59;5011702;28;20186;-68
2022/09/20 06:58:21;;;;;;;6.53;2.87;;;;;;;19.66;55.02;100699.97;5018365;28;20190;-68
2022/09/20 07:00:47;;;;;;;7.00;3.20;;;;;;;19.80;54.23;100714.47;4996295;28;20245;-69
2022/09/20 07:03:18;;;;;;;6.83;2.60;;;;;;;19.35;54.24;100712.16;5002008;28;20672;-68
2022/09/20 07:05:46;;;;;;;11.37;3.17;;;;;;;19.46;53.48;100712.09;5007179;28;20598;-67
2022/09/20 07:08:12;;;;;;;7.07;3.27;;;;;;;20.45;50.46;100711.66;5010672;28;20213;-68
2022/09/20 07:10:38;;;;;;;5.93;2.83;;;;;;;21.05;47.43;100720.41;5001692;28;20230;-68
2022/09/20 07:13:07;;;;;;;6.23;2.50;;;;;;;21.82;45.08;100723.13;5005282;28;20553;-68
2022/09/20 07:15:36;;;;;;;11.37;2.63;;;;;;;21.53;45.72;100727.44;5000003;28;20222;-69
2022/09/20 07:18:02;;;;;;;8.77;2.77;;;;;;;21.75;44.48;100722.88;4993068;28;20191;-70
2022/09/20 07:20:29;;;;;;;7.87;2.67;;;;;;;22.62;41.93;100725.31;4989389;28;20260;-68
2022/09/20 07:22:55;;;;;;;6.10;2.50;;;;;;;23.75;39.72;100728.25;4993956;28;20561;-68
2022/09/20 07:25:23;;;;;;;6.65;2.70;;;;;;;23.28;40.89;100729.41;4999634;28;20191;-68
2022/09/20 07:27:49;;;;;;;5.63;2.30;;;;;;;22.01;42.67;100730.13;4997943;28;20190;-68
2022/09/20 07:30:18;;;;;;;7.43;2.40;;;;;;;22.93;41.06;100732.84;4970012;28;20199;-68
2022/09/20 07:32:44;;;;;;;5.93;2.30;;;;;;;22.19;43.10;100736.25;4999896;28;20209;-67
2022/09/20 07:35:18;;;;;;;6.40;2.33;;;;;;;21.26;46.25;100736.81;5002547;28;20638;-69
2022/09/20 07:37:45;;;;;;;8.38;2.40;;;;;;;20.75;45.84;100727.41;5005116;28;20627;-68
2022/09/20 07:40:11;;;;;;;5.97;2.40;;;;;;;21.36;45.20;100738.59;4992568;28;20247;-68
2022/09/20 07:42:39;;;;;;;5.57;2.50;;;;;;;20.70;46.91;100735.66;5005288;28;20386;-67
2022/09/20 07:45:05;;;;;;;4.53;2.58;;;;;;;21.86;44.29;100733.19;4997597;28;20579;-67
2022/09/20 07:47:40;;;;;;;4.57;2.75;;;;;;;21.52;44.75;100744.13;5001440;28;20190;-60
2022/09/20 07:50:06;;;;;;;6.00;2.90;;;;;;;19.64;47.55;100746.25;5004791;28;20190;-62
2022/09/20 07:52:31;;;;;;;3.83;2.00;;;;;;;20.15;47.63;100744.63;5028921;28;20199;-61
2022/09/20 07:54:59;;;;;;;9.87;3.00;;;;;;;21.64;44.09;100754.47;5015506;28;20673;-62
2022/09/20 07:57:24;;;;;;;5.97;2.45;;;;;;;21.49;43.30;100751.41;5014225;28;20190;-60
2022/09/20 07:59:52;;;;;;;6.90;2.60;;;;;;;20.18;44.91;100754.03;5013148;28;20198;-61
2022/09/20 08:02:17;;;;;;;5.83;2.27;;;;;;;20.71;45.81;100762.59;5019199;28;20236;-68
2022/09/20 08:04:48;;;;;;;3.93;2.50;;;;;;;21.19;44.40;100747.97;5019614;28;20198;-66
2022/09/20 08:07:14;;;;;;;6.07;2.70;;;;;;;22.21;42.00;100757.06;5015985;28;20186;-67
2022/09/20 08:09:39;;;;;;;6.03;3.03;;;;;;;21.19;44.43;100751.41;5017740;28;20677;-67
2022/09/20 08:12:07;;;;;;;6.47;3.20;;;;;;;21.33;43.62;100752.78;5003195;28;20234;-68
2022/09/20 08:14:35;;;;;;;6.37;2.87;;;;;;;20.14;46.80;100750.84;5000448;28;20187;-68
2022/09/20 08:17:01;;;;;;;7.53;2.60;;;;;;;19.95;48.22;100750.75;5009404;28;20265;-67
2022/09/20 08:19:27;;;;;;;7.93;2.97;;;;;;;19.83;49.41;100755.19;5011017;28;20213;-67
2022/09/20 08:21:53;;;;;;;9.07;3.30;;;;;;;18.92;51.60;100765.16;5004203;28;20228;-66
2022/09/20 08:24:18;;;;;;;8.17;2.80;;;;;;;17.34;59.16;100763.94;5012903;28;20190;-67
2022/09/20 08:26:44;;;;;;;6.00;3.17;;;;;;;17.33;60.41;100763.13;5011705;28;20186;-66
2022/09/20 08:29:10;;;;;;;7.73;2.93;;;;;;;17.29;62.03;100751.28;5007753;28;20662;-68
2022/09/20 08:31:39;;;;;;;5.37;2.93;;;;;;;16.75;64.37;100761.09;5005654;28;20229;-67
2022/09/20 08:34:10;;;;;;;10.00;3.37;;;;;;;16.11;65.79;100762.00;5015829;28;20237;-66
2022/09/20 08:36:40;;;;;;;9.53;3.27;;;;;;;15.89;69.34;100754.81;5011348;28;20289;-66
2022/09/20 08:39:06;;;;;;;3.70;2.43;;;;;;;16.05;69.89;100756.38;5014113;28;20206;-67
2022/09/20 08:41:54;;;;;;;5.47;2.90;;;;;;;16.11;66.47;100753.38;5019965;28;20252;-66
2022/09/20 08:44:32;;;;;;;6.03;3.00;;;;;;;16.70;62.08;100747.59;5026070;28;20236;-67
2022/09/20 08:47:26;;;;;;;5.40;2.60;;;;;;;18.05;54.73;100756.16;5013965;28;20189;-67
2022/09/20 08:49:53;;;;;;;5.57;2.73;;;;;;;18.09;55.97;100760.16;5018619;28;20190;-66
2022/09/20 08:52:30;;;;;;;5.80;2.70;;;;;;;18.27;54.16;100752.75;5035606;28;20241;-66
2022/09/20 08:54:57;;;;;;;7.20;2.60;;;;;;;19.33;51.90;100751.38;5029871;28;20185;-67
2022/09/20 08:57:32;;;;;;;6.87;2.73;;;;;;;21.37;43.39;100750.72;5034965;28;20174;-67
2022/09/20 09:00:05;;;;;;;5.63;2.40;;;;;;;22.79;40.12;100755.16;5023201;28;20696;-67
2022/09/20 09:02:31;;;;;;;5.30;2.20;;;;;;;21.15;43.01;100754.44;5002886;28;20215;-67
2022/09/20 09:04:57;;;;;;;7.83;2.40;;;;;;;18.41;51.48;100754.28;5015940;28;20263;-67
2022/09/20 09:07:24;;;;;;;6.00;2.37;;;;;;;17.86;51.05;100759.25;5013135;28;20507;-67
2022/09/20 09:09:52;;;;;;;4.50;2.70;;;;;;;16.95;54.21;100758.88;5013661;28;20316;-67
2022/09/20 09:12:31;;;;;;;9.27;2.97;;;;;;;17.13;57.74;100763.72;5001818;28;20236;-67
2022/09/20 09:15:02;;;;;;;3.63;2.20;;;;;;;16.25;74.14;100775.81;5015216;28;20680;-69
2022/09/20 09:17:28;;;;;;;6.20;2.60;;;;;;;15.63;83.70;100769.47;5035874;28;20174;-66
2022/09/20 09:20:09;;;;;;;4.87;2.40;;;;;;;15.46;92.35;100770.56;5019578;28;20210;-67
2022/09/20 09:22:40;;;;;;;6.40;3.30;;;;;;;14.50;98.11;100779.06;4988409;28;20226;-68
2022/09/20 09:25:09;;;;;;;9.87;2.90;;;;;;;14.20;99.66;100774.75;5019744;28;20255;-66
2022/09/20 09:27:34;;;;;;;4.77;2.30;;;;;;;13.88;100.00;100777.50;5014478;28;20190;-67
2022/09/20 09:30:00;;;;;;;5.47;2.43;;;;;;;13.71;100.00;100778.44;5024819;28;20212;-67
2022/09/20 09:32:31;;;;;;;6.47;2.97;;;;;;;13.63;100.00;100772.88;4997227;28;20245;-67
2022/09/20 09:35:27;;;;;;;7.90;2.97;;;;;;;13.55;100.00;100781.88;5022528;28;20182;-68
2022/09/20 09:38:00;;;;;;;6.70;2.70;;;;;;;13.32;100.00;100774.56;5026561;28;20171;-69
2022/09/20 09:40:28;;;;;;;2.33;1.70;;;;;;;13.17;100.00;100768.50;5010110;28;20238;-67
2022/09/20 09:42:56;;;;;;;2.53;1.90;;;;;;;13.01;100.00;100768.47;5029080;28;20230;-68
2022/09/20 09:45:37;;;;;;;4.23;1.57;;;;;;;13.01;88.71;100758.16;5024574;28;20202;-68
2022/09/20 09:48:21;;;;;;;4.53;1.93;;;;;;;13.39;89.72;100766.41;5003450;28;20299;-66
2022/09/20 09:50:47;;;;;;;2.60;1.63;;;;;;;13.89;99.98;100763.63;5013852;28;20239;-67
2022/09/20 09:53:16;;;;;;;6.90;2.73;;;;;;;15.70;99.44;100752.56;5034302;28;20187;-67
2022/09/20 09:56:10;;;;;;;7.73;2.83;;;;;;;18.12;81.82;100759.94;5021381;28;20181;-67
2022/09/20 09:58:57;;;;;;;4.97;2.57;;;;;;;19.98;69.85;100745.25;5011352;28;20549;-69
2022/09/20 10:01:54;;;;;;;3.77;1.80;;;;;;;22.81;50.35;100746.16;5010170;28;20292;-67
2022/09/20 10:04:47;;;;;;;4.73;2.10;;;;;;;20.78;56.33;100748.88;5010877;28;20194;-69
2022/09/20 10:07:23;;;;;;;4.07;2.00;;;;;;;19.66;58.43;100754.78;5013481;28;20185;-67
2022/09/20 10:09:58;;;;;;;3.90;1.73;;;;;;;18.99;62.57;100754.09;5017605;28;20170;-68
2022/09/20 10:12:56;;;;;;;6.10;2.43;;;;;;;17.41;68.92;100745.19;4992464;28;20292;-68
2022/09/20 10:15:33;;;;;;;5.57;2.20;;;;;;;16.93;78.18;100755.56;5011709;28;20186;-69
2022/09/20 10:18:16;;;;;;;7.53;2.80;;;;;;;16.58;85.19;100753.66;5010518;28;20294;-68
2022/09/20 10:21:03;;;;;;;4.13;2.40;;;;;;;16.08;88.11;100756.19;5012431;28;20645;-68
2022/09/20 10:23:44;;;;;;;4.87;2.57;;;;;;;16.22;89.49;100750.88;5025752;28;20236;-68
2022/09/20 10:26:21;;;;;;;6.07;2.80;;;;;;;16.39;86.00;100748.91;5019793;28;20183;-68
2022/09/20 10:29:14;;;;;;;7.50;2.77;;;;;;;16.41;74.06;100749.63;5022479;28;20209;-68
2022/09/20 10:32:09;;;;;;;5.93;2.80;;;;;;;16.52;84.27;100746.28;4913058;28;20237;-68
2022/09/20 10:35:21;;;;;;;5.20;2.50;;;;;;;17.15;77.45;100743.66;4950396;29;20224;-67
2022/09/20 10:37:52;;;;;;;3.87;2.10;;;;;;;17.96;71.43;100746.41;4888795;29;20255;-66
2022/09/20 10:43:45;;;;;;;6.77;2.60;;;;;;;17.68;72.34;100733.66;4952814;28;20319;-67
2022/09/20 10:46:41;;;;;;;3.87;2.73;;;;;;;17.88;68.20;100737.38;4936167;29;20251;-67
2022/09/20 10:49:33;;;;;;;4.93;2.67;;;;;;;17.93;70.59;100744.03;4934641;29;20212;-67
2022/09/20 10:52:17;;;;;;;6.53;2.50;;;;;;;18.13;62.01;100737.34;4895951;29;20228;-68
2022/09/20 10:55:02;;;;;;;3.10;2.20;;;;;;;17.80;66.51;100742.34;4947571;29;20645;-69
2022/09/20 10:57:44;;;;;;;5.23;2.40;;;;;;;17.62;68.33;100741.94;4941034;29;20805;-67
2022/09/20 11:00:39;;;;;;;7.80;3.03;;;;;;;16.96;63.63;100736.34;4923921;28;20216;-68
2022/09/20 11:03:44;;;;;;;7.00;2.70;;;;;;;16.56;65.36;100735.59;4950359;29;20199;-68
2022/09/20 11:06:16;;;;;;;8.93;2.90;;;;;;;16.30;74.62;100745.19;4950098;29;20235;-67
2022/09/20 11:08:48;;;;;;;7.93;3.70;;;;;;;16.06;75.87;100745.06;4977312;28;20198;-67
2022/09/20 11:11:24;;;;;;;3.37;2.67;;;;;;;15.08;77.49;100745.31;5018237;28;20294;-67
2022/09/20 11:14:18;;;;;;;4.53;2.37;;;;;;;14.74;76.05;100752.63;5020210;28;20842;-67
2022/09/20 11:16:58;;;;;;;7.63;2.63;;;;;;;14.36;82.41;100757.41;5018020;28;20244;-66
2022/09/20 11:19:55;;;;;;;7.23;2.90;;;;;;;14.60;90.49;100758.59;5013922;28;20205;-67
2022/09/20 11:22:26;;;;;;;5.70;2.80;;;;;;;14.96;88.00;100757.31;5015329;28;20327;-66
2022/09/20 11:25:05;;;;;;;4.60;2.90;;;;;;;15.11;81.64;100758.09;5021629;28;20178;-66
2022/09/20 11:27:42;;;;;;;6.27;2.70;;;;;;;15.45;79.49;100756.75;5008102;28;20191;-66
2022/09/20 11:30:17;;;;;;;4.93;2.93;;;;;;;15.64;77.87;100766.78;4983031;28;20194;-67
2022/09/20 11:32:58;;;;;;;8.33;2.77;;;;;;;15.49;74.53;100763.44;4991397;28;20194;-66
2022/09/20 11:35:41;;;;;;;8.03;2.60;;;;;;;15.14;70.24;100763.94;5014334;28;20221;-66
2022/09/20 11:38:12;;;;;;;7.33;2.57;;;;;;;15.03;67.74;100761.16;5016990;28;20215;-67
2022/09/20 11:40:49;;;;;;;3.30;1.73;;;;;;;15.29;65.48;100754.34;5004705;28;20688;-67
2022/09/20 11:43:17;;;;;;;3.90;2.20;;;;;;;15.30;70.92;100755.16;5017435;28;20308;-67
2022/09/20 11:45:51;;;;;;;3.10;1.77;;;;;;;15.53;67.94;100753.69;5021449;28;20199;-66
2022/09/20 11:48:28;;;;;;;6.60;1.77;;;;;;;15.64;55.30;100748.63;5018542;28;20178;-67
2022/09/20 11:51:21;;;;;;;4.40;1.60;;;;;;;15.75;54.76;100745.34;5005751;28;20249;-66
2022/09/20 11:53:59;;;;;;;2.83;1.53;;;;;;;16.27;54.45;100748.81;5021425;28;20194;-67
2022/09/20 11:56:31;;;;;;;4.43;1.60;;;;;;;16.64;61.30;100752.41;5016894;28;20190;-67
2022/09/20 11:59:27;;;;;;;3.90;2.40;;;;;;;16.76;68.88;100744.56;5016757;28;20182;-66
2022/09/20 12:02:00;;;;;;;4.10;2.13;;;;;;;16.67;65.40;100741.78;5004327;28;20250;-66
2022/09/20 12:04:29;;;;;;;3.67;2.27;;;;;;;16.24;62.54;100749.00;5013771;28;20186;-67
2022/09/20 12:07:16;;;;;;;4.03;2.00;;;;;;;16.06;68.52;100739.88;5008005;28;20868;-67
2022/09/20 12:09:54;;;;;;;2.47;1.83;;;;;;;15.93;67.42;100751.06;5004966;28;20298;-67
2022/09/20 12:12:47;;;;;;;4.13;2.03;;;;;;;16.14;65.60;100746.22;5007985;28;20229;-67
2022/09/20 12:15:35;;;;;;;6.20;2.40;;;;;;;16.48;64.53;100750.84;5020324;28;20214;-66
2022/09/20 12:18:29;;;;;;;4.07;2.00;;;;;;;16.43;63.49;100742.56;5018319;28;20190;-67
2022/09/20 12:20:54;;;;;;;2.93;1.70;;;;;;;16.79;61.23;100738.31;5012262;28;20230;-66
2022/09/20 12:23:43;;;;;;;4.30;1.90;;;;;;;16.75;65.22;100739.50;5020767;28;20265;-67
2022/09/20 12:26:12;;;;;;;5.80;1.90;;;;;;;16.92;61.95;100738.34;5038355;28;20193;-67
2022/09/20 12:28:48;;;;;;;3.70;2.00;;;;;;;16.66;57.03;100746.16;5029372;28;20179;-68
2022/09/20 12:31:30;;;;;;;3.57;1.63;;;;;;;16.42;58.20;100741.75;5008654;28;20669;-67